createdAt,value
2019-06-19T00:00:14.441Z,9.30
2019-06-19T00:02:43.144Z,8.17
2019-06-19T00:05:12.799Z,9.57
2019-06-19T00:07:42.542Z,9.40
2019-06-19T00:10:12.377Z,10.10
2019-06-19T00:12:39.003Z,10.47
2019-06-19T00:15:06.154Z,9.10
2019-06-19T00:17:33.570Z,7.93
2019-06-19T00:20:02.851Z,9.83
2019-06-19T00:22:30.131Z,9.20
2019-06-19T00:24:57.338Z,9.97
2019-06-19T00:27:24.408Z,8.43
2019-06-19T00:29:51.647Z,8.50
2019-06-19T00:32:20.634Z,9.20
2019-06-19T00:34:47.825Z,9.03
2019-06-19T00:37:15.047Z,9.07
2019-06-19T00:39:42.670Z,9.60
2019-06-19T00:42:10.871Z,9.70
2019-06-19T00:44:40.721Z,9.13
2019-06-19T00:47:07.842Z,10.00
2019-06-19T00:49:35.017Z,8.47
2019-06-19T00:52:02.327Z,9.43
2019-06-19T00:54:31.734Z,9.60
2019-06-19T00:57:01.497Z,10.00
2019-06-19T00:59:31.081Z,8.80
2019-06-19T01:02:00.834Z,9.73
2019-06-19T01:04:27.209Z,11.07
2019-06-19T01:06:54.604Z,10.90
2019-06-19T01:09:22.156Z,10.30
2019-06-19T01:11:51.501Z,10.77
2019-06-19T01:14:21.049Z,10.60
2019-06-19T01:16:47.958Z,10.63
2019-06-19T01:19:15.278Z,10.90
2019-06-19T01:21:42.942Z,9.33
2019-06-19T01:24:10.648Z,9.87
2019-06-19T01:26:40.504Z,10.10
2019-06-19T01:29:07.342Z,10.87
2019-06-19T01:31:34.722Z,9.67
2019-06-19T01:34:02.006Z,9.63
2019-06-19T01:36:31.313Z,10.53
2019-06-19T01:39:00.721Z,10.20
2019-06-19T01:41:28.295Z,10.30
2019-06-19T01:43:55.989Z,10.33
2019-06-19T01:46:23.447Z,10.47
2019-06-19T01:48:51.913Z,10.43
2019-06-19T01:51:20.732Z,9.80
2019-06-19T01:54:17.569Z,11.20
2019-06-19T01:56:45.742Z,10.00
2019-06-19T01:59:13.081Z,11.27
2019-06-19T02:01:41.167Z,10.40
2019-06-19T02:04:11.547Z,9.80
2019-06-19T02:06:37.886Z,9.27
2019-06-19T02:09:06.678Z,10.37
2019-06-19T02:11:33.913Z,9.50
2019-06-19T02:14:01.250Z,10.20
2019-06-19T02:16:31.131Z,9.40
2019-06-19T02:18:58.103Z,10.60
2019-06-19T02:21:25.406Z,10.57
2019-06-19T02:23:52.834Z,10.20
2019-06-19T02:26:21.245Z,10.27
2019-06-19T02:28:50.622Z,10.17
2019-06-19T02:31:21.887Z,10.60
2019-06-19T02:33:47.725Z,9.53
2019-06-19T02:36:15.235Z,12.00
2019-06-19T02:38:42.663Z,9.63
2019-06-19T02:41:10.673Z,9.47
2019-06-19T02:43:38.164Z,10.10
2019-06-19T02:46:05.760Z,10.67
2019-06-19T02:48:33.080Z,10.63
2019-06-19T02:51:00.471Z,11.40
2019-06-19T02:53:27.893Z,10.67
2019-06-19T02:55:55.710Z,12.03
2019-06-19T02:58:23.033Z,11.80
2019-06-19T03:00:50.356Z,11.63
2019-06-19T03:03:17.799Z,11.63
2019-06-19T03:05:45.080Z,10.77
2019-06-19T03:08:12.440Z,11.80
2019-06-19T03:10:39.783Z,11.20
2019-06-19T03:13:07.248Z,12.07
2019-06-19T03:15:34.716Z,10.50
2019-06-19T03:18:02.114Z,10.60
2019-06-19T03:20:29.404Z,10.50
2019-06-19T03:22:56.760Z,11.20
2019-06-19T03:25:24.244Z,11.13
2019-06-19T03:27:51.565Z,12.47
2019-06-19T03:30:19.582Z,11.20
2019-06-19T03:32:46.875Z,12.17
2019-06-19T03:35:14.387Z,11.03
2019-06-19T03:37:41.770Z,12.10
2019-06-19T03:40:09.939Z,12.13
2019-06-19T03:42:37.465Z,10.87
2019-06-19T03:45:04.982Z,11.70
2019-06-19T03:47:32.510Z,11.10
2019-06-19T03:49:59.944Z,11.77
2019-06-19T03:52:27.294Z,10.87
2019-06-19T03:54:54.946Z,11.03
2019-06-19T03:57:22.517Z,12.07
2019-06-19T03:59:50.203Z,10.47
2019-06-19T04:02:17.575Z,11.33
2019-06-19T04:04:45.136Z,10.70
2019-06-19T04:07:12.468Z,10.60
2019-06-19T04:09:39.835Z,10.40
2019-06-19T04:12:07.227Z,10.60
2019-06-19T04:14:34.594Z,10.40
2019-06-19T04:17:01.846Z,10.40
2019-06-19T04:19:29.179Z,10.97
2019-06-19T04:21:56.625Z,10.67
2019-06-19T04:24:23.911Z,8.73
2019-06-19T04:26:51.424Z,9.50
2019-06-19T04:29:21.813Z,10.30
2019-06-19T04:32:01.465Z,10.60
2019-06-19T04:34:18.464Z,9.63
2019-06-19T04:36:48.406Z,9.90
2019-06-19T04:39:15.937Z,9.07
2019-06-19T04:41:43.350Z,8.40
2019-06-19T04:44:10.765Z,8.10
2019-06-19T04:46:38.252Z,9.37
2019-06-19T04:49:05.866Z,8.60
2019-06-19T04:51:33.287Z,8.40
2019-06-19T04:54:00.622Z,9.50
2019-06-19T04:56:28.023Z,9.13
2019-06-19T04:58:55.520Z,9.43
2019-06-19T05:01:24.654Z,9.27
2019-06-19T05:03:52.048Z,10.50
2019-06-19T05:06:19.483Z,10.80
2019-06-19T05:08:48.764Z,10.87
2019-06-19T05:11:16.523Z,10.70
2019-06-19T05:13:43.913Z,13.03
2019-06-19T05:16:11.553Z,10.33
2019-06-19T05:18:38.781Z,11.13
2019-06-19T05:21:06.171Z,10.20
2019-06-19T05:23:34.047Z,9.87
2019-06-19T05:26:01.383Z,10.03
2019-06-19T05:28:28.859Z,9.63
2019-06-19T05:30:56.203Z,10.47
2019-06-19T05:33:23.555Z,8.10
2019-06-19T05:35:50.912Z,8.47
2019-06-19T05:38:18.187Z,9.70
2019-06-19T05:40:46.383Z,7.70
2019-06-19T05:43:13.683Z,7.07
2019-06-19T05:45:41.043Z,7.10
2019-06-19T05:48:08.278Z,6.77
2019-06-19T05:50:35.603Z,6.27
2019-06-19T05:53:03.729Z,6.17
2019-06-19T05:55:31.626Z,6.40
2019-06-19T05:57:59.092Z,5.80
2019-06-19T06:00:29.248Z,5.83
2019-06-19T06:02:56.654Z,5.43
2019-06-19T06:05:23.979Z,4.87
2019-06-19T06:07:51.494Z,5.10
2019-06-19T06:10:18.899Z,4.80
2019-06-19T06:12:46.464Z,5.00
2019-06-19T06:15:13.914Z,5.57
2019-06-19T06:17:41.224Z,4.70
2019-06-19T06:20:24.308Z,4.70
2019-06-19T06:22:51.687Z,5.47
2019-06-19T06:25:19.080Z,4.80
2019-06-19T06:27:46.535Z,3.95
2019-06-19T06:30:13.821Z,4.17
2019-06-19T06:32:41.148Z,3.55
2019-06-19T06:35:08.846Z,3.85
2019-06-19T06:37:36.193Z,4.05
2019-06-19T06:40:04.715Z,4.17
2019-06-19T06:42:32.111Z,3.90
2019-06-19T06:44:59.520Z,3.83
2019-06-19T06:47:26.817Z,3.50
2019-06-19T06:49:54.194Z,3.83
2019-06-19T06:52:21.431Z,3.62
2019-06-19T06:54:48.821Z,2.92
2019-06-19T06:57:16.203Z,3.58
2019-06-19T06:59:44.088Z,3.80
2019-06-19T07:02:12.897Z,3.30
2019-06-19T07:04:40.758Z,3.35
2019-06-19T07:07:08.021Z,9.03
2019-06-19T07:09:35.533Z,5.17
2019-06-19T07:12:03.077Z,3.37
2019-06-19T07:14:30.424Z,3.25
2019-06-19T07:16:58.181Z,3.60
2019-06-19T07:19:25.395Z,3.55
2019-06-19T07:21:52.738Z,8.13
2019-06-19T07:24:20.030Z,5.20
2019-06-19T07:26:52.878Z,3.22
2019-06-19T07:29:16.626Z,3.27
2019-06-19T07:31:43.958Z,2.87
2019-06-19T07:34:11.282Z,3.83
2019-06-19T07:36:38.601Z,2.87
2019-06-19T07:39:05.933Z,2.37
2019-06-19T07:41:33.533Z,2.52
2019-06-19T07:44:01.056Z,2.40
2019-06-19T07:46:28.486Z,2.05
2019-06-19T07:48:55.830Z,2.85
2019-06-19T07:51:23.190Z,4.58
2019-06-19T07:53:50.875Z,2.25
2019-06-19T07:56:18.423Z,2.15
2019-06-19T07:58:46.680Z,2.40
2019-06-19T08:01:14.215Z,6.50
2019-06-19T08:03:54.270Z,17.17
2019-06-19T08:06:10.972Z,3.10
2019-06-19T08:08:38.316Z,5.28
2019-06-19T08:11:05.714Z,2.10
2019-06-19T08:13:33.088Z,1.80
2019-06-19T08:16:00.434Z,1.92
2019-06-19T08:18:27.860Z,5.72
2019-06-19T08:20:55.035Z,2.37
2019-06-19T08:23:22.697Z,2.92
2019-06-19T08:25:50.968Z,1.62
2019-06-19T08:28:18.306Z,1.10
2019-06-19T08:30:45.674Z,1.60
2019-06-19T08:33:13.173Z,2.50
2019-06-19T08:35:40.361Z,2.10
2019-06-19T08:38:07.641Z,1.40
2019-06-19T08:40:34.985Z,1.70
2019-06-19T08:43:02.182Z,1.82
2019-06-19T08:45:29.630Z,1.95
2019-06-19T08:47:56.917Z,17.80
2019-06-19T08:50:24.172Z,2.75
2019-06-19T08:52:51.527Z,1.87
2019-06-19T08:55:19.272Z,1.60
2019-06-19T08:57:46.717Z,5.83
2019-06-19T09:00:19.972Z,2.92
2019-06-19T09:02:47.274Z,1.70
2019-06-19T09:05:14.919Z,2.17
2019-06-19T09:07:42.391Z,1.77
2019-06-19T09:10:16.277Z,1.65
2019-06-19T09:12:43.661Z,4.45
2019-06-19T09:15:11.378Z,4.97
2019-06-19T09:17:38.607Z,8.63
2019-06-19T09:20:06.026Z,1.75
2019-06-19T09:22:33.386Z,1.67
2019-06-19T09:25:01.190Z,1.50
2019-06-19T09:27:28.657Z,1.90
2019-06-19T09:29:56.345Z,1.60
2019-06-19T09:32:23.954Z,2.60
2019-06-19T09:34:51.672Z,2.70
2019-06-19T09:37:19.070Z,2.35
2019-06-19T09:39:46.614Z,2.33
2019-06-19T09:42:13.975Z,3.05
2019-06-19T09:44:41.698Z,1.85
2019-06-19T09:47:09.128Z,7.12
2019-06-19T09:49:36.510Z,3.35
2019-06-19T09:52:03.933Z,6.08
2019-06-19T09:54:31.261Z,1.45
2019-06-19T09:56:58.630Z,2.33
2019-06-19T09:59:26.040Z,3.00
2019-06-19T10:01:54.319Z,1.70
2019-06-19T10:04:21.711Z,1.80
2019-06-19T10:06:48.988Z,2.50
2019-06-19T10:09:16.437Z,2.93
2019-06-19T10:11:43.689Z,3.60
2019-06-19T10:14:11.087Z,2.90
2019-06-19T10:16:38.298Z,6.03
2019-06-19T10:19:05.651Z,3.07
2019-06-19T10:21:33.073Z,3.50
2019-06-19T10:24:00.435Z,8.30
2019-06-19T10:26:27.771Z,3.80
2019-06-19T10:28:56.022Z,3.37
2019-06-19T10:31:23.515Z,3.23
2019-06-19T10:33:50.982Z,4.40
2019-06-19T10:36:18.334Z,3.90
2019-06-19T10:38:45.681Z,3.60
2019-06-19T10:41:13.079Z,3.20
2019-06-19T10:43:40.407Z,6.90
2019-06-19T10:46:07.803Z,4.00
2019-06-19T10:48:35.131Z,4.30
2019-06-19T10:51:02.351Z,5.63
2019-06-19T10:53:29.650Z,3.10
2019-06-19T10:55:57.088Z,4.70
2019-06-19T10:58:24.329Z,21.93
2019-06-19T11:00:51.648Z,4.63
2019-06-19T11:03:19.902Z,3.50
2019-06-19T11:05:47.191Z,3.30
2019-06-19T11:08:14.587Z,10.07
2019-06-19T11:10:42.460Z,11.20
2019-06-19T11:13:09.953Z,6.00
2019-06-19T11:15:37.702Z,17.80
2019-06-19T11:18:05.071Z,5.23
2019-06-19T11:20:32.400Z,31.10
2019-06-19T11:22:59.788Z,3.70
2019-06-19T11:25:27.123Z,3.37
2019-06-19T11:27:54.497Z,3.97
2019-06-19T11:30:22.262Z,3.53
2019-06-19T11:32:49.540Z,3.60
2019-06-19T11:35:16.856Z,4.67
2019-06-19T11:37:44.521Z,3.40
2019-06-19T11:40:11.999Z,8.13
2019-06-19T11:42:39.481Z,5.87
2019-06-19T11:45:07.152Z,5.80
2019-06-19T11:47:34.897Z,3.73
2019-06-19T11:50:02.371Z,3.17
2019-06-19T11:52:29.969Z,7.20
2019-06-19T11:54:57.533Z,4.00
2019-06-19T11:57:25.023Z,5.87
2019-06-19T11:59:53.774Z,3.63
2019-06-19T12:02:21.317Z,3.33
2019-06-19T12:04:49.640Z,3.17
2019-06-19T12:07:17.454Z,3.10
2019-06-19T12:09:44.918Z,2.97
2019-06-19T12:12:12.257Z,3.40
2019-06-19T12:14:39.700Z,3.60
2019-06-19T12:17:07.044Z,2.40
2019-06-19T12:19:34.467Z,3.10
2019-06-19T12:22:01.728Z,2.93
2019-06-19T12:24:31.306Z,3.07
2019-06-19T12:26:58.491Z,2.70
2019-06-19T12:29:26.157Z,2.50
2019-06-19T12:31:53.498Z,4.13
2019-06-19T12:34:20.934Z,2.47
2019-06-19T12:36:48.330Z,3.10
2019-06-19T12:39:16.426Z,2.60
2019-06-19T12:41:43.960Z,3.30
2019-06-19T12:44:11.281Z,3.90
2019-06-19T12:46:38.901Z,3.73
2019-06-19T12:49:06.254Z,2.53
2019-06-19T12:51:33.696Z,2.47
2019-06-19T12:54:01.096Z,3.70
2019-06-19T12:56:28.508Z,7.13
2019-06-19T12:58:55.992Z,15.73
2019-06-19T13:01:23.525Z,3.13
2019-06-19T13:03:50.702Z,2.40
2019-06-19T13:06:18.439Z,2.90
2019-06-19T13:08:45.713Z,2.87
2019-06-19T13:11:12.971Z,26.73
2019-06-19T13:13:40.293Z,4.90
2019-06-19T13:16:10.280Z,2.50
2019-06-19T13:18:37.006Z,2.60
2019-06-19T13:21:04.387Z,2.63
2019-06-19T13:23:31.619Z,3.00
2019-06-19T13:25:58.973Z,2.20
2019-06-19T13:28:26.393Z,3.00
2019-06-19T13:30:53.761Z,3.10
2019-06-19T13:33:21.185Z,3.77
2019-06-19T13:35:48.286Z,2.53
2019-06-19T13:38:15.517Z,9.67
2019-06-19T13:40:42.978Z,2.33
2019-06-19T13:43:10.301Z,2.40
2019-06-19T13:45:37.403Z,2.60
2019-06-19T13:48:06.458Z,2.47
2019-06-19T13:50:33.869Z,3.30
2019-06-19T13:53:01.158Z,3.33
2019-06-19T13:55:28.437Z,3.10
2019-06-19T13:57:55.833Z,2.43
2019-06-19T14:00:23.267Z,5.00
2019-06-19T14:02:50.659Z,2.53
2019-06-19T14:05:18.315Z,3.27
2019-06-19T14:07:45.899Z,2.47
2019-06-19T14:10:13.428Z,11.70
2019-06-19T14:12:40.794Z,2.67
2019-06-19T14:15:08.601Z,2.30
2019-06-19T14:17:36.120Z,3.20
2019-06-19T14:20:04.171Z,3.20
2019-06-19T14:22:31.611Z,2.57
2019-06-19T14:24:59.009Z,2.53
2019-06-19T14:27:26.329Z,5.00
2019-06-19T14:29:53.572Z,11.60
2019-06-19T14:32:21.103Z,3.00
2019-06-19T14:34:48.298Z,2.30
2019-06-19T14:37:15.735Z,3.53
2019-06-19T14:39:42.974Z,2.60
2019-06-19T14:42:10.321Z,2.90
2019-06-19T14:44:39.886Z,3.17
2019-06-19T14:47:06.746Z,2.60
2019-06-19T14:49:34.015Z,2.70
2019-06-19T14:52:01.401Z,2.80
2019-06-19T14:54:28.623Z,2.57
2019-06-19T14:56:56.143Z,2.97
2019-06-19T14:59:23.383Z,2.40
2019-06-19T15:01:54.400Z,2.90
2019-06-19T15:04:20.093Z,2.23
2019-06-19T15:06:48.038Z,2.47
2019-06-19T15:09:15.122Z,2.63
2019-06-19T15:11:42.477Z,3.50
2019-06-19T15:14:09.608Z,3.17
2019-06-19T15:16:36.904Z,6.90
2019-06-19T15:19:04.157Z,2.67
2019-06-19T15:21:31.465Z,5.60
2019-06-19T15:23:58.726Z,3.37
2019-06-19T15:26:25.931Z,3.10
2019-06-19T15:28:53.182Z,5.20
2019-06-19T15:31:20.660Z,2.97
2019-06-19T15:33:47.838Z,2.70
2019-06-19T15:36:15.153Z,3.20
2019-06-19T15:38:42.491Z,3.20
2019-06-19T15:41:09.718Z,3.50
2019-06-19T15:43:36.948Z,3.20
2019-06-19T15:46:04.168Z,3.57
2019-06-19T15:48:31.378Z,3.10
2019-06-19T15:50:58.768Z,2.70
2019-06-19T15:53:26.148Z,3.20
2019-06-19T15:55:53.238Z,3.50
2019-06-19T15:58:20.930Z,3.60
2019-06-19T16:00:48.263Z,3.07
2019-06-19T16:03:15.863Z,2.70
2019-06-19T16:05:43.124Z,3.17
2019-06-19T16:08:10.354Z,2.97
2019-06-19T16:10:37.538Z,3.67
2019-06-19T16:13:05.086Z,3.60
2019-06-19T16:15:32.370Z,2.73
2019-06-19T16:17:59.452Z,3.87
2019-06-19T16:20:26.735Z,3.27
2019-06-19T16:22:53.998Z,3.10
2019-06-19T16:25:21.340Z,2.73
2019-06-19T16:27:48.684Z,3.50
2019-06-19T16:30:16.430Z,2.90
2019-06-19T16:32:43.712Z,2.83
2019-06-19T16:35:11.268Z,2.83
2019-06-19T16:37:38.986Z,3.13
2019-06-19T16:40:09.167Z,3.13
2019-06-19T16:42:36.545Z,3.40
2019-06-19T16:45:04.714Z,2.97
2019-06-19T16:47:32.285Z,5.30
2019-06-19T16:49:59.602Z,2.63
2019-06-19T16:52:27.173Z,2.60
2019-06-19T16:54:54.415Z,2.90
2019-06-19T16:57:21.627Z,2.00
2019-06-19T16:59:49.017Z,2.30
2019-06-19T17:02:16.177Z,2.20
2019-06-19T17:04:43.385Z,2.53
2019-06-19T17:07:10.541Z,2.63
2019-06-19T17:09:37.923Z,3.53
2019-06-19T17:12:05.277Z,2.70
2019-06-19T17:14:32.739Z,2.60
2019-06-19T17:17:00.362Z,2.33
2019-06-19T17:19:27.639Z,2.30
2019-06-19T17:21:54.873Z,2.10
2019-06-19T17:24:21.971Z,2.67
2019-06-19T17:26:49.187Z,2.37
2019-06-19T17:29:16.345Z,1.93
2019-06-19T17:31:43.549Z,2.23
2019-06-19T17:34:10.728Z,2.10
2019-06-19T17:36:37.943Z,2.10
2019-06-19T17:39:20.779Z,2.53
2019-06-19T17:41:35.959Z,2.43
2019-06-19T17:44:03.550Z,2.50
2019-06-19T17:46:30.741Z,2.77
2019-06-19T17:48:58.255Z,2.60
2019-06-19T17:51:25.653Z,2.43
2019-06-19T17:53:52.881Z,2.80
2019-06-19T17:56:20.386Z,2.80
2019-06-19T17:58:47.638Z,2.77
2019-06-19T18:01:14.892Z,2.00
2019-06-19T18:03:42.413Z,2.10
2019-06-19T18:06:09.723Z,2.57
2019-06-19T18:08:37.004Z,2.43
2019-06-19T18:11:04.314Z,2.50
2019-06-19T18:13:31.827Z,4.30
2019-06-19T18:15:59.032Z,3.40
2019-06-19T18:18:26.269Z,2.77
2019-06-19T18:20:53.331Z,2.77
2019-06-19T18:23:20.514Z,3.00
2019-06-19T18:25:47.894Z,3.30
2019-06-19T18:28:15.596Z,2.77
2019-06-19T18:30:42.967Z,3.60
2019-06-19T18:33:10.439Z,2.67
2019-06-19T18:35:37.845Z,3.83
2019-06-19T18:38:05.053Z,4.10
2019-06-19T18:40:32.349Z,3.10
2019-06-19T18:42:59.552Z,3.00
2019-06-19T18:45:27.032Z,2.90
2019-06-19T18:47:57.041Z,3.30
2019-06-19T18:50:23.511Z,3.13
2019-06-19T18:52:50.718Z,3.30
2019-06-19T18:55:17.947Z,3.40
2019-06-19T18:57:45.165Z,3.73
2019-06-19T19:00:14.016Z,3.50
2019-06-19T19:02:42.419Z,3.10
2019-06-19T19:05:10.607Z,4.20
2019-06-19T19:07:38.005Z,4.10
2019-06-19T19:10:12.587Z,3.73
2019-06-19T19:12:35.785Z,3.90
2019-06-19T19:15:03.640Z,4.10
2019-06-19T19:17:31.039Z,4.23
2019-06-19T19:19:58.358Z,4.10
2019-06-19T19:22:25.743Z,5.13
2019-06-19T19:24:53.323Z,4.80
2019-06-19T19:27:20.562Z,4.20
2019-06-19T19:29:47.793Z,4.00
2019-06-19T19:32:16.141Z,7.90
2019-06-19T19:34:43.565Z,4.40
2019-06-19T19:37:11.416Z,5.83
2019-06-19T19:39:39.018Z,6.40
2019-06-19T19:42:09.510Z,9.30
2019-06-19T19:44:37.197Z,6.20
2019-06-19T19:47:09.358Z,3.10
2019-06-19T19:49:36.566Z,3.50
2019-06-19T19:52:04.426Z,3.43
2019-06-19T19:54:32.108Z,4.57
2019-06-19T19:56:59.772Z,4.10
2019-06-19T19:59:27.195Z,4.17
2019-06-19T20:01:54.699Z,3.90
2019-06-19T20:04:22.071Z,3.50
2019-06-19T20:06:50.377Z,3.80
2019-06-19T20:09:17.875Z,3.50
2019-06-19T20:11:45.703Z,3.63
2019-06-19T20:14:12.930Z,3.50
2019-06-19T20:16:40.198Z,3.17
2019-06-19T20:19:07.409Z,3.10
2019-06-19T20:21:34.636Z,3.70
2019-06-19T20:24:02.392Z,4.40
2019-06-19T20:26:31.842Z,4.60
2019-06-19T20:28:59.376Z,4.13
2019-06-19T20:31:27.862Z,3.73
2019-06-19T20:33:55.097Z,4.10
2019-06-19T20:36:22.316Z,3.40
2019-06-19T20:38:49.594Z,3.20
2019-06-19T20:41:16.757Z,4.27
2019-06-19T20:43:44.125Z,3.23
2019-06-19T20:46:24.745Z,3.53
2019-06-19T20:48:40.801Z,11.57
2019-06-19T20:51:08.297Z,4.90
2019-06-19T20:53:35.580Z,4.20
2019-06-19T20:56:03.086Z,4.30
2019-06-19T20:58:30.635Z,11.93
2019-06-19T21:00:58.224Z,4.30
2019-06-19T21:03:25.463Z,5.43
2019-06-19T21:05:52.658Z,4.20
2019-06-19T21:08:29.481Z,6.40
2019-06-19T21:11:19.208Z,4.20
2019-06-19T21:13:33.141Z,4.73
2019-06-19T21:16:03.291Z,4.77
2019-06-19T21:18:29.956Z,5.60
2019-06-19T21:20:57.240Z,4.40
2019-06-19T21:23:25.019Z,4.00
2019-06-19T21:25:52.457Z,4.17
2019-06-19T21:28:19.383Z,5.00
2019-06-19T21:30:46.531Z,4.13
2019-06-19T21:33:13.900Z,5.00
2019-06-19T21:35:41.158Z,3.90
2019-06-19T21:38:08.297Z,3.50
2019-06-19T21:40:35.592Z,3.70
2019-06-19T21:43:02.999Z,3.53
2019-06-19T21:45:30.668Z,4.10
2019-06-19T21:47:58.020Z,3.30
2019-06-19T21:50:25.141Z,4.40
2019-06-19T21:52:52.429Z,5.43
2019-06-19T21:55:19.950Z,6.10
2019-06-19T21:57:47.206Z,9.30
2019-06-19T22:00:18.674Z,8.30
2019-06-19T22:02:47.959Z,5.30
2019-06-19T22:05:15.632Z,6.37
2019-06-19T22:07:42.837Z,4.37
2019-06-19T22:10:11.722Z,4.57
2019-06-19T22:12:39.556Z,4.27
2019-06-19T22:15:08.684Z,5.83
2019-06-19T22:17:35.925Z,5.97
2019-06-19T22:20:03.825Z,5.00
2019-06-19T22:22:31.365Z,5.60
2019-06-19T22:24:58.810Z,4.30
2019-06-19T22:27:26.770Z,3.53
2019-06-19T22:29:54.123Z,3.97
2019-06-19T22:32:21.490Z,4.30
2019-06-19T22:34:48.662Z,3.90
2019-06-19T22:37:15.887Z,4.17
2019-06-19T22:39:43.408Z,3.90
2019-06-19T22:42:12.084Z,3.73
2019-06-19T22:44:39.573Z,3.57
2019-06-19T22:47:06.890Z,3.80
2019-06-19T22:49:34.245Z,3.50
2019-06-19T22:52:01.422Z,3.80
2019-06-19T22:54:29.228Z,3.90
2019-06-19T22:56:56.588Z,3.70
2019-06-19T22:59:23.745Z,3.63
2019-06-19T23:02:07.216Z,3.80
2019-06-19T23:04:34.779Z,4.17
2019-06-19T23:07:02.062Z,3.80
2019-06-19T23:09:29.335Z,3.83
2019-06-19T23:11:56.531Z,3.50
2019-06-19T23:14:23.803Z,3.60
2019-06-19T23:16:51.072Z,3.53
2019-06-19T23:19:18.250Z,3.97
2019-06-19T23:21:45.451Z,2.73
2019-06-19T23:24:13.213Z,3.00
2019-06-19T23:26:40.504Z,3.83
2019-06-19T23:29:07.706Z,3.70
2019-06-19T23:31:35.153Z,3.80
2019-06-19T23:34:02.627Z,3.87
2019-06-19T23:36:30.266Z,3.57
2019-06-19T23:38:57.808Z,3.33
2019-06-19T23:41:25.060Z,2.90
2019-06-19T23:43:52.284Z,3.47
2019-06-19T23:46:19.953Z,7.57
2019-06-19T23:48:47.158Z,3.00
2019-06-19T23:51:14.382Z,3.20
2019-06-19T23:53:41.572Z,3.00
2019-06-19T23:56:08.645Z,3.80
2019-06-19T23:58:35.826Z,3.53
